Time;durP1;ratioP1;P1;durP2;ratioP2;P2;SDS_P1;SDS_P2;PMS_P1;PMS_P2;Temp;Humidity;BMP_temperature;BMP_pressure;BME280_temperature;BME280_humidity;BME280_pressure;Samples;Min_cycle;Max_cycle;Signal;HPM_P1;HPM_P2
2022/07/12 00:00:03;;;;;;;10.43;8.07;;;17.90;99.90;;;;;;5012305;28;20072;-77
2022/07/12 00:02:33;;;;;;;8.50;7.80;;;17.90;99.90;;;;;;5010393;28;20064;-78
2022/07/12 00:05:01;;;;;;;10.05;9.05;;;17.90;99.90;;;;;;5010678;28;20097;-77
2022/07/12 00:07:29;;;;;;;9.68;8.77;;;17.90;99.90;;;;;;5027067;28;20053;-77
2022/07/12 00:09:56;;;;;;;12.05;9.52;;;17.90;99.90;;;;;;5012227;28;20050;-77
2022/07/12 00:12:26;;;;;;;11.52;10.43;;;17.90;99.90;;;;;;5012253;28;20421;-77
2022/07/12 00:14:53;;;;;;;9.65;8.75;;;17.90;99.90;;;;;;5011868;28;20054;-77
2022/07/12 00:17:21;;;;;;;9.88;9.02;;;18.00;99.90;;;;;;5011537;28;20053;-77
2022/07/12 00:19:49;;;;;;;11.55;9.13;;;18.00;99.90;;;;;;5011693;28;20072;-77
2022/07/12 00:22:16;;;;;;;9.02;8.23;;;18.00;99.90;;;;;;5010069;28;20149;-77
2022/07/12 00:24:44;;;;;;;9.75;8.85;;;18.00;99.90;;;;;;5011967;28;20197;-77
2022/07/12 00:27:12;;;;;;;8.82;8.13;;;18.10;99.90;;;;;;5012111;28;20049;-78
2022/07/12 00:29:41;;;;;;;9.68;8.77;;;18.10;99.90;;;;;;5010585;28;20050;-78
2022/07/12 00:32:09;;;;;;;9.73;8.73;;;18.10;99.90;;;;;;5011487;28;20058;-78
2022/07/12 00:34:37;;;;;;;9.40;8.38;;;18.10;99.90;;;;;;4994023;28;20038;-77
2022/07/12 00:37:05;;;;;;;9.52;8.65;;;18.10;99.90;;;;;;5011553;28;20144;-78
2022/07/12 00:39:33;;;;;;;9.90;8.90;;;18.10;99.90;;;;;;5026833;28;20053;-78
2022/07/12 00:42:00;;;;;;;11.18;8.95;;;18.10;99.90;;;;;;5026672;28;20092;-77
2022/07/12 00:44:30;;;;;;;9.05;8.27;;;18.20;99.90;;;;;;5011257;28;20062;-77
2022/07/12 00:47:00;;;;;;;9.45;8.40;;;18.20;99.90;;;;;;5026379;28;20078;-77
2022/07/12 00:49:27;;;;;;;9.25;8.40;;;18.20;99.90;;;;;;5011600;28;20037;-77
2022/07/12 00:51:56;;;;;;;9.02;8.30;;;18.20;99.90;;;;;;5026195;28;20438;-76
2022/07/12 00:54:24;;;;;;;8.32;7.47;;;18.30;99.90;;;;;;5026492;28;20046;-77
2022/07/12 00:56:53;;;;;;;10.05;9.15;;;18.30;99.90;;;;;;5010686;28;20149;-77
2022/07/12 00:59:21;;;;;;;9.05;8.25;;;18.30;99.90;;;;;;5009716;28;20073;-77
2022/07/12 01:01:48;;;;;;;11.20;9.85;;;18.30;99.90;;;;;;5009344;28;20073;-77
2022/07/12 01:04:18;;;;;;;9.80;8.13;;;18.30;99.90;;;;;;5025522;28;20056;-77
2022/07/12 01:06:46;;;;;;;9.02;8.23;;;18.40;99.90;;;;;;5010478;28;20144;-77
2022/07/12 01:09:14;;;;;;;9.00;8.27;;;18.40;99.90;;;;;;5025294;28;20164;-78
2022/07/12 01:11:42;;;;;;;10.48;8.30;;;18.40;99.90;;;;;;5010673;28;20602;-77
2022/07/12 01:14:11;;;;;;;10.68;7.53;;;18.40;99.90;;;;;;5009193;28;20049;-77
2022/07/12 01:16:39;;;;;;;7.90;7.30;;;18.40;99.90;;;;;;5025917;28;20053;-78
2022/07/12 01:19:08;;;;;;;8.10;7.50;;;18.40;99.90;;;;;;5027074;28;20136;-76
2022/07/12 01:21:40;;;;;;;8.13;7.28;;;18.50;99.90;;;;;;5011104;28;20120;-77
2022/07/12 01:24:11;;;;;;;6.72;6.20;;;18.50;99.90;;;;;;5010606;28;20069;-77
2022/07/12 01:26:39;;;;;;;6.85;6.25;;;18.50;99.90;;;;;;5008919;28;20053;-77
2022/07/12 01:29:09;;;;;;;7.25;6.55;;;18.50;99.90;;;;;;5025739;28;20046;-77
2022/07/12 01:31:37;;;;;;;6.43;5.82;;;18.40;99.90;;;;;;5025164;28;20068;-78
2022/07/12 01:34:06;;;;;;;7.45;5.45;;;18.30;99.90;;;;;;5010614;28;20072;-78
2022/07/12 01:36:34;;;;;;;6.50;5.93;;;18.30;99.90;;;;;;5010277;28;20042;-78
2022/07/12 01:39:02;;;;;;;7.07;5.53;;;18.30;99.90;;;;;;5010217;28;20068;-78
2022/07/12 01:41:32;;;;;;;5.38;4.93;;;18.30;99.90;;;;;;5025473;28;20065;-77
2022/07/12 01:44:00;;;;;;;5.63;5.13;;;18.30;99.90;;;;;;5025570;28;20062;-77
2022/07/12 01:46:28;;;;;;;5.70;5.28;;;18.30;99.90;;;;;;5025039;28;20104;-77
2022/07/12 01:48:56;;;;;;;5.60;5.10;;;18.30;99.90;;;;;;5010370;28;20514;-77
2022/07/12 01:51:24;;;;;;;7.45;6.75;;;18.30;99.90;;;;;;5010652;28;20050;-78
2022/07/12 01:53:52;;;;;;;5.82;5.32;;;18.30;99.90;;;;;;5025559;28;20049;-78
2022/07/12 01:56:20;;;;;;;5.80;5.30;;;18.30;99.90;;;;;;5025023;28;20049;-78
2022/07/12 01:58:49;;;;;;;5.80;5.35;;;18.30;99.90;;;;;;5008589;28;20049;-78
2022/07/12 02:01:17;;;;;;;7.53;6.20;;;18.30;99.90;;;;;;5010216;28;20071;-78
2022/07/12 02:03:45;;;;;;;9.18;6.30;;;18.30;99.90;;;;;;5010781;28;20125;-78
2022/07/12 02:06:13;;;;;;;5.63;5.13;;;18.40;99.90;;;;;;5026033;28;20340;-78
2022/07/12 02:08:43;;;;;;;6.43;5.82;;;18.40;99.90;;;;;;5025866;28;20074;-78
2022/07/12 02:11:14;;;;;;;5.70;5.15;;;18.40;99.90;;;;;;5009044;28;20206;-78
2022/07/12 02:13:44;;;;;;;5.63;5.22;;;18.40;99.90;;;;;;5010249;28;20068;-78
2022/07/12 02:16:33;;;;;;;5.60;5.10;;;18.50;99.90;;;;;;5009190;28;20057;-76
2022/07/12 02:19:01;;;;;;;6.07;5.53;;;18.50;99.90;;;;;;5010131;28;20108;-76
2022/07/12 02:21:29;;;;;;;5.50;5.07;;;18.60;99.90;;;;;;5008938;28;20050;-78
2022/07/12 02:23:57;;;;;;;6.43;5.25;;;18.60;99.90;;;;;;5025369;28;20104;-74
2022/07/12 02:26:25;;;;;;;7.68;5.53;;;18.60;99.90;;;;;;5008676;28;20415;-76
2022/07/12 02:28:53;;;;;;;5.35;5.05;;;18.70;99.90;;;;;;5008981;28;20114;-77
2022/07/12 02:31:21;;;;;;;5.60;5.15;;;18.70;99.90;;;;;;5025497;28;20498;-78
2022/07/12 02:33:50;;;;;;;5.30;4.80;;;18.70;99.90;;;;;;5010413;28;20061;-77
2022/07/12 02:36:17;;;;;;;6.18;5.60;;;18.80;99.90;;;;;;5025147;28;20053;-77
2022/07/12 02:38:45;;;;;;;5.70;5.20;;;18.80;99.90;;;;;;5011564;28;20061;-77
2022/07/12 02:41:13;;;;;;;7.30;4.93;;;18.80;99.90;;;;;;5013352;28;20530;-77
2022/07/12 02:43:44;;;;;;;6.43;5.85;;;18.90;99.90;;;;;;5014036;28;20049;-78
2022/07/12 02:46:13;;;;;;;6.55;5.85;;;18.90;99.90;;;;;;5012675;28;20054;-78
2022/07/12 02:48:42;;;;;;;6.18;5.72;;;18.90;99.90;;;;;;5029145;28;20064;-78
2022/07/12 02:51:11;;;;;;;8.77;7.60;;;19.10;99.90;;;;;;5013606;28;20056;-78
2022/07/12 02:53:39;;;;;;;5.85;5.35;;;19.10;99.90;;;;;;5028819;28;20073;-78
2022/07/12 02:56:08;;;;;;;6.68;6.00;;;19.20;99.90;;;;;;5013523;28;20053;-77
2022/07/12 02:58:37;;;;;;;6.85;6.13;;;19.20;99.90;;;;;;5012205;28;20080;-76
2022/07/12 03:01:05;;;;;;;6.05;5.55;;;19.30;99.90;;;;;;5013299;28;20144;-76
2022/07/12 03:03:32;;;;;;;6.85;6.25;;;19.30;99.90;;;;;;5012944;28;20054;-76
2022/07/12 03:06:00;;;;;;;7.28;6.57;;;19.30;99.90;;;;;;5013209;28;20054;-76
2022/07/12 03:08:29;;;;;;;9.20;6.43;;;19.40;99.90;;;;;;5012032;28;20060;-76
2022/07/12 03:10:57;;;;;;;7.10;6.40;;;19.40;99.90;;;;;;5012486;28;20061;-76
2022/07/12 03:13:25;;;;;;;6.30;5.75;;;19.40;99.90;;;;;;5012032;28;20459;-76
2022/07/12 03:15:53;;;;;;;9.85;7.57;;;19.40;99.90;;;;;;5011180;28;20050;-76
2022/07/12 03:18:20;;;;;;;6.70;6.10;;;19.40;99.90;;;;;;5013131;28;20072;-77
2022/07/12 03:20:49;;;;;;;7.60;6.15;;;19.40;99.90;;;;;;5013533;28;20502;-77
2022/07/12 03:23:16;;;;;;;8.20;7.50;;;19.30;99.90;;;;;;5011977;28;20054;-77
2022/07/12 03:25:46;;;;;;;8.20;7.47;;;19.30;99.90;;;;;;5027883;28;20089;-76
2022/07/12 03:28:14;;;;;;;10.55;9.45;;;19.30;99.90;;;;;;5027859;28;20482;-76
2022/07/12 03:30:42;;;;;;;8.75;7.43;;;19.30;99.90;;;;;;5011848;28;20082;-76
2022/07/12 03:33:10;;;;;;;8.80;7.60;;;19.30;99.90;;;;;;5012879;28;20502;-77
2022/07/12 03:35:37;;;;;;;8.82;7.93;;;19.20;99.90;;;;;;5012776;28;20054;-76
2022/07/12 03:38:05;;;;;;;9.77;8.27;;;19.20;99.90;;;;;;5012853;28;20049;-76
2022/07/12 03:40:34;;;;;;;12.65;7.43;;;19.20;99.90;;;;;;5010971;28;20045;-76
2022/07/12 03:43:03;;;;;;;11.27;8.73;;;19.20;99.90;;;;;;5011645;28;20050;-76
2022/07/12 03:45:32;;;;;;;13.95;8.95;;;19.20;99.90;;;;;;5028311;28;20058;-77
2022/07/12 03:47:59;;;;;;;9.20;8.05;;;19.20;99.90;;;;;;5012824;28;20056;-77
2022/07/12 03:50:27;;;;;;;9.38;8.07;;;19.20;99.90;;;;;;5012639;28;20521;-77
2022/07/12 03:52:55;;;;;;;10.02;7.50;;;19.20;99.90;;;;;;5012584;28;20049;-78
2022/07/12 03:55:23;;;;;;;9.88;8.32;;;19.30;99.90;;;;;;5011256;28;20050;-77
2022/07/12 03:57:51;;;;;;;13.35;10.02;;;19.30;99.90;;;;;;5012554;28;20069;-76
2022/07/12 04:00:20;;;;;;;13.27;7.70;;;19.30;99.90;;;;;;5013044;28;20453;-75
2022/07/12 04:02:47;;;;;;;9.63;8.45;;;19.40;99.90;;;;;;5012531;28;20058;-76
2022/07/12 04:05:15;;;;;;;9.30;8.32;;;19.40;99.90;;;;;;5011140;28;20046;-76
2022/07/12 04:07:43;;;;;;;9.07;7.95;;;19.50;99.90;;;;;;4995291;28;20042;-76
2022/07/12 04:10:11;;;;;;;10.25;8.55;;;19.50;99.90;;;;;;5027351;28;20096;-76
2022/07/12 04:12:39;;;;;;;10.85;8.65;;;19.60;99.90;;;;;;5011996;28;20073;-76
2022/07/12 04:15:09;;;;;;;9.57;7.90;;;19.70;99.90;;;;;;5010916;28;20471;-76
2022/07/12 04:17:38;;;;;;;9.20;8.25;;;19.70;99.90;;;;;;5012431;28;20136;-77
2022/07/12 04:20:08;;;;;;;10.82;8.45;;;19.80;99.90;;;;;;5012327;28;20046;-77
2022/07/12 04:22:36;;;;;;;8.18;7.40;;;19.90;99.90;;;;;;5027351;28;20939;-76
2022/07/12 04:25:04;;;;;;;8.13;7.30;;;19.90;99.90;;;;;;5027087;28;20140;-77
2022/07/12 04:27:32;;;;;;;9.85;8.90;;;20.00;99.90;;;;;;5012143;28;20057;-77
2022/07/12 04:30:00;;;;;;;8.88;7.97;;;20.10;99.90;;;;;;5027140;28;20149;-76
2022/07/12 04:32:28;;;;;;;9.40;8.45;;;20.20;99.90;;;;;;5011893;28;20069;-77
2022/07/12 04:34:57;;;;;;;8.68;7.75;;;20.20;99.90;;;;;;5027373;28;20049;-75
2022/07/12 04:37:25;;;;;;;10.38;8.88;;;20.30;99.90;;;;;;5011640;28;20050;-76
2022/07/12 04:39:53;;;;;;;9.73;8.30;;;20.40;99.90;;;;;;5011915;28;20458;-76
2022/07/12 04:42:20;;;;;;;8.60;7.43;;;20.40;99.90;;;;;;4994079;28;20141;-76
2022/07/12 04:44:48;;;;;;;10.98;6.90;;;20.50;99.90;;;;;;5027129;28;20171;-76
2022/07/12 04:47:16;;;;;;;8.18;7.18;;;20.50;99.90;;;;;;5009893;28;20264;-76
2022/07/12 04:49:45;;;;;;;9.85;8.38;;;20.60;99.90;;;;;;5011171;28;20052;-77
2022/07/12 04:52:14;;;;;;;8.40;7.07;;;20.60;99.90;;;;;;5026756;28;20144;-77
2022/07/12 04:54:42;;;;;;;12.40;11.27;;;20.70;99.90;;;;;;5026935;28;20119;-77
2022/07/12 04:57:09;;;;;;;7.57;6.90;;;20.80;99.90;;;;;;5010004;28;20069;-76
2022/07/12 04:59:37;;;;;;;9.15;6.78;;;20.90;99.90;;;;;;5011563;28;20058;-77
2022/07/12 05:02:05;;;;;;;7.53;6.80;;;21.00;99.90;;;;;;5025330;28;20054;-77
2022/07/12 05:04:34;;;;;;;11.55;9.75;;;21.00;99.90;;;;;;5011134;28;20065;-76
2022/07/12 05:07:02;;;;;;;8.32;7.53;;;21.00;99.90;;;;;;5010084;28;20506;-77
2022/07/12 05:09:31;;;;;;;7.85;7.15;;;21.20;99.90;;;;;;5011137;28;20066;-77
2022/07/12 05:11:59;;;;;;;9.98;7.63;;;21.30;99.90;;;;;;5010959;28;20049;-76
2022/07/12 05:14:27;;;;;;;8.52;6.90;;;21.40;99.90;;;;;;5011248;28;20479;-77
2022/07/12 05:16:55;;;;;;;6.40;5.80;;;21.40;99.90;;;;;;5026188;28;20056;-77
2022/07/12 05:19:23;;;;;;;7.78;6.95;;;21.50;99.90;;;;;;5010928;28;20560;-77
2022/07/12 05:21:51;;;;;;;9.50;7.05;;;21.60;99.90;;;;;;5025996;28;20061;-78
2022/07/12 05:24:18;;;;;;;7.70;7.00;;;21.70;99.90;;;;;;5011167;28;20137;-76
2022/07/12 05:26:48;;;;;;;6.82;6.32;;;21.90;99.90;;;;;;5026152;28;20046;-77
2022/07/12 05:29:16;;;;;;;7.55;6.15;;;22.10;99.90;;;;;;5009177;28;20046;-76
2022/07/12 05:31:43;;;;;;;7.55;6.75;;;22.30;99.90;;;;;;5025543;28;20132;-77
2022/07/12 05:34:11;;;;;;;7.28;6.72;;;22.40;99.90;;;;;;5025893;28;20057;-77
2022/07/12 05:36:39;;;;;;;7.47;6.80;;;22.50;99.90;;;;;;5009019;28;20065;-77
2022/07/12 05:39:07;;;;;;;7.75;6.68;;;22.60;99.90;;;;;;5010901;28;20140;-77
2022/07/12 05:41:35;;;;;;;7.50;6.60;;;22.60;99.90;;;;;;5010871;28;20054;-77
2022/07/12 05:44:04;;;;;;;7.72;7.03;;;22.70;99.90;;;;;;5011013;28;20045;-77
2022/07/12 05:46:33;;;;;;;9.35;8.13;;;23.10;99.90;;;;;;5009464;28;20050;-77
2022/07/12 05:49:00;;;;;;;8.20;5.85;;;23.60;99.90;;;;;;5025714;28;20045;-77
2022/07/12 05:54:13;;;;;;;6.20;5.50;;;24.70;99.90;;;;;;5009489;28;20042;-78
2022/07/12 05:56:41;;;;;;;6.60;6.07;;;25.10;99.90;;;;;;5009992;28;20072;-78
2022/07/12 05:59:10;;;;;;;7.30;6.22;;;25.50;99.90;;;;;;5010369;28;20446;-78
2022/07/12 06:01:38;;;;;;;6.43;5.57;;;25.90;99.90;;;;;;5008666;28;20045;-78
2022/07/12 06:04:07;;;;;;;7.43;5.90;;;26.30;99.90;;;;;;5025651;28;20053;-77
2022/07/12 06:06:35;;;;;;;8.15;5.22;;;26.50;99.90;;;;;;5010272;28;20049;-76
2022/07/12 06:09:03;;;;;;;5.75;5.03;;;26.70;99.90;;;;;;5025603;28;20041;-77
2022/07/12 06:11:32;;;;;;;5.85;5.43;;;26.60;99.90;;;;;;5008552;28;20141;-77
2022/07/12 06:14:00;;;;;;;4.85;4.55;;;26.80;99.90;;;;;;5012611;28;20473;-78
2022/07/12 06:16:30;;;;;;;5.65;4.80;;;27.10;99.90;;;;;;5014776;28;20052;-78
2022/07/12 06:18:57;;;;;;;5.40;4.90;;;27.40;99.90;;;;;;5014213;28;20052;-78
2022/07/12 06:21:27;;;;;;;6.65;4.50;;;27.90;99.90;;;;;;5014433;28;20104;-78
2022/07/12 06:23:55;;;;;;;7.05;5.18;;;28.40;99.90;;;;;;5029200;28;20115;-78
2022/07/12 06:26:23;;;;;;;4.97;4.57;;;28.90;99.90;;;;;;5012148;28;20042;-78
2022/07/12 06:28:50;;;;;;;5.30;4.80;;;29.20;99.90;;;;;;5013528;28;20077;-78
2022/07/12 06:31:18;;;;;;;7.05;5.18;;;29.50;99.90;;;;;;5011025;28;20041;-77
2022/07/12 06:33:48;;;;;;;7.00;5.00;;;29.90;99.90;;;;;;4995153;28;20049;-79
2022/07/12 06:36:15;;;;;;;5.10;4.60;;;30.20;99.90;;;;;;5010000;28;20543;-79
2022/07/12 06:38:43;;;;;;;10.00;5.40;;;30.20;99.90;;;;;;5011007;28;20141;-78
2022/07/12 06:41:11;;;;;;;6.97;6.03;;;29.90;99.90;;;;;;5011491;28;20111;-84
2022/07/12 06:43:39;;;;;;;5.95;5.43;;;29.90;99.90;;;;;;5012311;28;20511;-84
2022/07/12 06:46:07;;;;;;;5.40;5.00;;;30.20;99.90;;;;;;5010992;28;20069;-79
2022/07/12 06:48:35;;;;;;;5.55;5.05;;;30.60;99.90;;;;;;5004800;28;20577;-80
2022/07/12 06:51:04;;;;;;;8.30;5.15;;;30.90;99.90;;;;;;5003505;28;20441;-80
2022/07/12 06:53:32;;;;;;;5.45;5.05;;;31.30;99.90;;;;;;5009535;28;20050;-80
2022/07/12 06:56:00;;;;;;;6.43;5.40;;;31.70;99.90;;;;;;5013419;28;20096;-80
2022/07/12 06:58:28;;;;;;;5.20;4.80;;;31.40;99.90;;;;;;5013502;28;20400;-81
2022/07/12 07:00:55;;;;;;;6.22;5.68;;;31.10;99.90;;;;;;5013347;28;20060;-81
2022/07/12 07:03:23;;;;;;;5.78;5.25;;;30.80;99.90;;;;;;5014646;28;20422;-80
2022/07/12 07:05:51;;;;;;;5.80;5.40;;;30.50;99.90;;;;;;5014140;28;20136;-81
2022/07/12 07:08:20;;;;;;;7.68;5.47;;;30.70;99.90;;;;;;5003371;28;20086;-80
2022/07/12 07:10:49;;;;;;;6.47;6.05;;;31.20;99.90;;;;;;4993607;28;20050;-80
2022/07/12 07:13:16;;;;;;;6.07;5.68;;;31.80;99.90;;;;;;4993180;28;20499;-81
2022/07/12 07:15:44;;;;;;;6.53;5.88;;;32.20;99.90;;;;;;5002923;28;20496;-81
2022/07/12 07:18:12;;;;;;;6.07;5.57;;;32.30;99.90;;;;;;5013344;28;20053;-82
2022/07/12 07:20:41;;;;;;;6.60;5.82;;;32.20;99.90;;;;;;5012938;28;20046;-82
2022/07/12 07:23:10;;;;;;;7.65;5.80;;;32.10;99.90;;;;;;5013046;28;20498;-80
2022/07/12 07:25:40;;;;;;;6.85;5.70;;;31.90;99.90;;;;;;5032433;28;20050;-85
2022/07/12 07:28:08;;;;;;;6.03;5.45;;;31.60;99.90;;;;;;5007574;28;20050;-88
2022/07/12 07:30:53;;;;;;;6.53;5.38;;;31.60;99.90;;;;;;5017361;28;20053;-88
2022/07/12 07:33:23;;;;;;;7.82;6.00;;;32.10;99.90;;;;;;5031271;28;20046;-86
2022/07/12 07:35:52;;;;;;;6.18;5.57;;;32.60;99.90;;;;;;5016467;28;20150;-87
2022/07/12 07:38:20;;;;;;;5.88;5.38;;;33.20;99.90;;;;;;5016493;28;20128;-88
2022/07/12 07:40:50;;;;;;;5.35;4.88;;;33.20;99.90;;;;;;5015576;28;20230;-87
2022/07/12 07:43:18;;;;;;;7.10;5.68;;;33.30;99.90;;;;;;5015638;28;20045;-87
2022/07/12 07:45:47;;;;;;;7.68;6.53;;;33.60;99.70;;;;;;5016007;28;20050;-87
2022/07/12 07:48:14;;;;;;;5.53;5.03;;;34.00;99.80;;;;;;4997223;28;20060;-87
2022/07/12 07:50:42;;;;;;;6.82;6.13;;;34.40;96.00;;;;;;5003598;28;20049;-88
2022/07/12 07:53:10;;;;;;;6.38;5.97;;;33.80;95.10;;;;;;5025034;28;20124;-89
2022/07/12 07:55:38;;;;;;;7.53;6.80;;;33.00;95.90;;;;;;5022935;28;20084;-85
2022/07/12 07:58:20;;;;;;;6.75;6.13;;;32.50;97.70;;;;;;5025216;28;21669;-86
2022/07/12 08:00:56;;;;;;;9.07;6.30;;;32.10;98.30;;;;;;5019746;28;20049;-87
2022/07/12 08:03:25;;;;;;;8.35;7.55;;;31.70;99.70;;;;;;5009168;28;20116;-88
2022/07/12 08:05:57;;;;;;;7.47;6.72;;;31.60;99.90;;;;;;4991020;28;20053;-88
2022/07/12 08:08:26;;;;;;;7.07;6.30;;;31.70;99.90;;;;;;5017006;28;20396;-80
2022/07/12 08:10:54;;;;;;;6.72;6.25;;;32.00;99.90;;;;;;5022663;28;20063;-89
2022/07/12 08:13:32;;;;;;;6.40;5.90;;;32.50;99.90;;;;;;5023510;28;20058;-88
2022/07/12 08:16:03;;;;;;;7.38;6.90;;;32.70;98.00;;;;;;5006330;28;20102;-81
2022/07/12 08:18:31;;;;;;;7.32;6.65;;;32.60;98.20;;;;;;4973587;28;20154;-82
2022/07/12 08:20:58;;;;;;;7.10;6.50;;;32.50;98.70;;;;;;4972937;28;20423;-82
2022/07/12 08:23:28;;;;;;;6.95;6.32;;;32.70;99.00;;;;;;4972868;28;20424;-78
2022/07/12 08:25:56;;;;;;;7.40;6.15;;;33.30;98.80;;;;;;4969633;28;20058;-80
2022/07/12 08:28:24;;;;;;;7.72;7.05;;;34.00;96.60;;;;;;4936428;29;20046;-81
2022/07/12 08:30:52;;;;;;;7.50;6.93;;;34.00;94.70;;;;;;4955392;28;20516;-78
2022/07/12 08:33:23;;;;;;;7.70;7.03;;;33.70;94.60;;;;;;4952511;28;20070;-84
2022/07/12 08:35:51;;;;;;;9.68;8.70;;;33.60;95.40;;;;;;4959464;28;20043;-84
2022/07/12 08:38:20;;;;;;;6.70;6.10;;;34.20;95.40;;;;;;4973299;28;20051;-85
2022/07/12 08:40:48;;;;;;;6.85;6.43;;;34.90;93.10;;;;;;4973395;28;20046;-85
2022/07/12 08:43:15;;;;;;;7.38;5.82;;;35.60;91.70;;;;;;4973026;28;20653;-84
2022/07/12 08:45:43;;;;;;;6.50;6.00;;;36.00;91.30;;;;;;4972289;28;20431;-84
2022/07/12 08:48:11;;;;;;;6.72;6.00;;;36.60;87.60;;;;;;4969592;28;20059;-84
2022/07/12 08:50:41;;;;;;;7.97;6.88;;;37.00;86.40;;;;;;4971088;28;20047;-84
2022/07/12 08:53:13;;;;;;;7.93;6.50;;;37.50;83.40;;;;;;4970580;28;20051;-83
2022/07/12 08:55:41;;;;;;;6.32;5.93;;;37.60;79.80;;;;;;4952937;28;20626;-84
2022/07/12 08:58:18;;;;;;;8.38;5.97;;;37.90;80.60;;;;;;4969226;28;20093;-84
2022/07/12 09:00:46;;;;;;;5.75;5.35;;;38.30;76.90;;;;;;4969058;28;20046;-84
2022/07/12 09:03:14;;;;;;;7.07;6.40;;;38.60;75.30;;;;;;4971340;28;20055;-83
2022/07/12 09:05:52;;;;;;;6.68;5.90;;;38.80;75.00;;;;;;4972707;28;20051;-84
2022/07/12 09:08:28;;;;;;;7.65;6.25;;;38.50;72.90;;;;;;4974191;28;20050;-84
2022/07/12 09:11:00;;;;;;;7.28;6.45;;;38.50;72.50;;;;;;4971951;28;20515;-85
2022/07/12 09:13:51;;;;;;;8.55;6.78;;;38.20;71.60;;;;;;4972951;28;20051;-84
2022/07/12 09:16:21;;;;;;;7.43;6.40;;;37.30;73.30;;;;;;4973423;28;20145;-83
2022/07/12 09:18:50;;;;;;;8.38;5.97;;;36.30;74.10;;;;;;4974337;28;20074;-84
2022/07/12 09:21:28;;;;;;;9.27;8.00;;;35.40;77.50;;;;;;4971194;28;20154;-83
2022/07/12 09:23:58;;;;;;;9.30;8.38;;;35.50;81.80;;;;;;4973360;28;20082;-83
2022/07/12 09:26:33;;;;;;;11.27;9.40;;;36.10;80.40;;;;;;4973310;28;20109;-84
2022/07/12 09:29:07;;;;;;;9.48;8.77;;;36.30;78.80;;;;;;4972915;28;20046;-84
2022/07/12 09:36:06;;;;;;;7.30;6.60;;;35.90;80.60;;;;;;4971951;28;20479;-83
2022/07/12 09:37:20;;;;;;;7.32;6.82;;;36.30;80.90;;;;;;4973779;28;20069;-84
2022/07/12 09:39:48;;;;;;;6.72;6.25;;;37.30;78.70;;;;;;4972510;28;20050;-84
2022/07/12 09:42:16;;;;;;;8.70;7.60;;;38.00;71.70;;;;;;4970860;28;20104;-84
2022/07/12 09:44:44;;;;;;;7.07;6.60;;;38.30;73.50;;;;;;4971689;28;20057;-84
2022/07/12 09:47:15;;;;;;;7.55;6.80;;;38.10;71.20;;;;;;4969375;28;20443;-85
2022/07/12 09:49:43;;;;;;;;;;;38.40;73.00;;;;;;4970751;28;20127;-85
2022/07/12 09:52:20;;;;;;;7.90;7.15;;;39.10;70.60;;;;;;4970034;28;19926;-84
2022/07/12 09:54:52;;;;;;;7.80;7.20;;;39.60;70.70;;;;;;4970300;28;20078;-85
2022/07/12 09:57:21;;;;;;;;;;;40.10;69.80;;;;;;4971659;28;20066;-81
2022/07/12 09:59:52;;;;;;;7.97;6.28;;;40.20;66.20;;;;;;4975305;28;20029;-86
2022/07/12 10:02:20;;;;;;;7.82;7.13;;;40.20;66.00;;;;;;4968239;28;20157;-83
2022/07/12 10:04:49;;;;;;;17.45;9.27;;;40.50;66.90;;;;;;4968424;28;20039;-82
2022/07/12 10:07:18;;;;;;;6.50;5.82;;;40.80;64.60;;;;;;4966199;28;20458;-81
2022/07/12 10:09:49;;;;;;;7.47;6.70;;;41.00;64.20;;;;;;4969571;28;20614;-83
2022/07/12 10:12:18;;;;;;;6.88;6.35;;;41.10;64.60;;;;;;4984462;28;20039;-81
2022/07/12 10:14:48;;;;;;;7.00;5.85;;;41.10;63.20;;;;;;4968426;28;20058;-84
2022/07/12 10:17:23;;;;;;;6.90;6.30;;;41.20;62.60;;;;;;4969983;28;20495;-86
2022/07/12 10:20:14;;;;;;;12.52;11.32;;;41.30;64.90;;;;;;4969911;28;20482;-85
2022/07/12 10:22:43;;;;;;;11.85;10.93;;;41.40;64.20;;;;;;4958604;28;20609;-81
2022/07/12 10:25:44;;;;;;;9.35;6.30;;;41.50;63.50;;;;;;4969876;28;20057;-85
2022/07/12 10:28:16;;;;;;;7.40;6.80;;;41.60;62.20;;;;;;4953937;28;20055;-85
2022/07/12 10:30:45;;;;;;;8.13;7.45;;;41.70;62.20;;;;;;4972003;28;20063;-83
2022/07/12 10:33:19;;;;;;;7.00;6.40;;;41.90;60.30;;;;;;4954625;28;20059;-83
2022/07/12 10:36:01;;;;;;;8.98;6.80;;;41.90;59.80;;;;;;4955333;28;20038;-82
2022/07/12 10:38:31;;;;;;;6.28;5.82;;;42.10;59.70;;;;;;4980040;28;20058;-80
2022/07/12 10:41:17;;;;;;;6.75;6.10;;;42.10;58.40;;;;;;4974032;28;20076;-87
2022/07/12 10:46:30;;;;;;;7.07;6.38;;;42.20;57.90;;;;;;4971906;28;20078;-84
2022/07/12 10:49:34;;;;;;;6.78;6.18;;;42.30;56.70;;;;;;4961891;28;20043;-84
2022/07/12 10:52:37;;;;;;;6.43;5.90;;;42.50;57.40;;;;;;4968237;28;20145;-85
2022/07/12 10:55:34;;;;;;;5.88;5.32;;;42.70;57.10;;;;;;4963121;28;20059;-86
2022/07/12 10:58:10;;;;;;;7.53;6.78;;;42.90;56.40;;;;;;4963606;28;20074;-84
2022/07/12 11:00:40;;;;;;;9.02;6.25;;;43.10;56.60;;;;;;4968123;28;20558;-84
2022/07/12 11:03:16;;;;;;;6.90;6.38;;;43.00;56.50;;;;;;4966096;28;20050;-84
2022/07/12 11:05:45;;;;;;;7.00;5.70;;;43.10;56.80;;;;;;4969414;28;20455;-84
2022/07/12 11:08:20;;;;;;;8.25;7.22;;;43.10;55.90;;;;;;4972428;28;20050;-84
2022/07/12 11:10:58;;;;;;;8.93;6.10;;;43.30;55.80;;;;;;4970456;28;20090;-83
2022/07/12 11:13:40;;;;;;;6.70;5.93;;;43.30;55.40;;;;;;4968771;28;20065;-84
2022/07/12 11:16:14;;;;;;;7.22;6.22;;;43.20;54.80;;;;;;4969360;28;20070;-83
2022/07/12 11:19:09;;;;;;;6.43;5.97;;;43.20;55.10;;;;;;4968871;28;20061;-83
2022/07/12 11:21:59;;;;;;;8.20;6.43;;;43.30;55.40;;;;;;4975250;28;20442;-85
2022/07/12 11:24:35;;;;;;;8.90;6.80;;;43.40;53.60;;;;;;4975582;28;20535;-85
2022/07/12 11:27:07;;;;;;;6.35;5.78;;;43.20;54.70;;;;;;4949627;28;20047;-84
2022/07/12 11:29:39;;;;;;;8.50;7.70;;;43.40;54.20;;;;;;4970340;28;20061;-84
2022/07/12 11:32:08;;;;;;;7.85;7.20;;;43.40;54.60;;;;;;4958733;28;20059;-84
2022/07/12 11:34:37;;;;;;;7.18;5.95;;;43.60;55.10;;;;;;4968611;28;20297;-85
2022/07/12 11:37:05;;;;;;;7.30;6.40;;;43.80;53.70;;;;;;4969533;28;20089;-86
2022/07/12 11:39:36;;;;;;;6.18;5.78;;;43.90;54.10;;;;;;4970560;28;20142;-85
2022/07/12 11:42:06;;;;;;;;;;;44.00;52.50;;;;;;4971023;28;20059;-85
2022/07/12 11:44:45;;;;;;;7.03;6.55;;;44.00;52.40;;;;;;4984856;28;20418;-85
2022/07/12 11:47:14;;;;;;;7.15;5.95;;;44.00;53.00;;;;;;4970413;28;20051;-85
2022/07/12 11:49:45;;;;;;;7.05;6.32;;;44.00;52.50;;;;;;4969385;28;20047;-84
2022/07/12 11:52:16;;;;;;;6.55;5.90;;;44.10;53.30;;;;;;4966609;28;20096;-84
2022/07/12 11:55:02;;;;;;;6.95;6.30;;;44.40;51.70;;;;;;4963759;28;20054;-86
2022/07/12 11:57:51;;;;;;;7.93;6.32;;;44.60;51.60;;;;;;4970541;28;20133;-85
2022/07/12 12:00:23;;;;;;;7.47;6.85;;;44.70;51.00;;;;;;4968823;28;20439;-85
2022/07/12 12:02:53;;;;;;;7.40;6.90;;;44.30;51.80;;;;;;4969885;28;20057;-86
2022/07/12 12:05:58;;;;;;;7.25;6.65;;;43.40;52.60;;;;;;4973386;28;20499;-87
2022/07/12 12:09:11;;;;;;;7.72;7.13;;;41.50;53.80;;;;;;4986385;28;20050;-86
2022/07/12 12:11:39;;;;;;;9.02;8.32;;;39.20;56.70;;;;;;4966251;28;20055;-84
2022/07/12 12:14:27;;;;;;;7.28;6.68;;;37.10;60.70;;;;;;4971917;28;20050;-87
2022/07/12 12:17:45;;;;;;;8.52;7.72;;;35.70;63.80;;;;;;4972984;28;20492;-85
2022/07/12 12:20:21;;;;;;;8.70;5.25;;;34.20;66.80;;;;;;4952643;28;20090;-88
2022/07/12 12:22:53;;;;;;;31.08;5.50;;;32.70;63.30;;;;;;4972809;28;20046;-84
2022/07/12 12:25:21;;;;;;;9.40;5.63;;;30.60;78.40;;;;;;4970303;28;20055;-86
2022/07/12 12:27:55;;;;;;;7.85;5.03;;;27.20;90.20;;;;;;4971866;28;20074;-81
2022/07/12 12:30:26;;;;;;;8.48;5.82;;;25.10;99.90;;;;;;4968920;28;20184;-79
2022/07/12 12:33:07;;;;;;;12.30;5.78;;;23.80;99.90;;;;;;4966373;28;20078;-80
2022/07/12 12:35:48;;;;;;;12.02;6.45;;;23.10;99.90;;;;;;4966506;28;20070;-77
2022/07/12 12:38:16;;;;;;;10.15;6.40;;;22.60;99.90;;;;;;4966766;28;20173;-80
2022/07/12 12:40:52;;;;;;;9.40;6.35;;;22.20;99.90;;;;;;4968254;28;20125;-83
2022/07/12 12:43:22;;;;;;;7.63;6.25;;;22.00;99.90;;;;;;4959264;28;20061;-83
2022/07/12 12:45:56;;;;;;;7.78;6.28;;;21.90;99.90;;;;;;4963943;28;20503;-80
2022/07/12 12:48:26;;;;;;;10.65;6.60;;;21.80;99.90;;;;;;4964303;28;21220;-79
2022/07/12 12:51:03;;;;;;;6.93;6.28;;;21.80;99.90;;;;;;4961365;28;20055;-79
2022/07/12 12:53:31;;;;;;;10.82;6.55;;;21.80;99.90;;;;;;4966279;28;20066;-80
2022/07/12 12:55:59;;;;;;;10.10;6.30;;;21.80;99.90;;;;;;4970736;28;20129;-78
2022/07/12 12:58:28;;;;;;;15.38;7.55;;;21.70;99.90;;;;;;4964539;28;20062;-80
2022/07/12 13:00:57;;;;;;;9.80;6.28;;;21.60;99.90;;;;;;4967007;28;20043;-81
2022/07/12 13:03:25;;;;;;;10.00;6.38;;;21.60;99.90;;;;;;4969578;28;20058;-82
2022/07/12 13:05:54;;;;;;;6.90;6.30;;;21.50;99.90;;;;;;4980657;28;20057;-85
2022/07/12 13:08:26;;;;;;;7.35;5.78;;;21.50;99.90;;;;;;4975827;28;20181;-86
2022/07/12 13:11:24;;;;;;;9.07;6.07;;;21.40;99.90;;;;;;4993135;28;20057;-85